Terminal Aerodrome Forecast
Issued by NWS

Current Version | Previous Version | Graphics & Text | Print | Product List | Glossary On
Versions: 1 2 3 4 5 6 7 8 9 10 11 12 13 14 15 16 17 18 19 20 21 22 23 24 25 26 27 28 29 30 31 32 33 34
000
FTUS41 KRNK 152335
TAFLWB
TAF
KLWB 152335Z 1600/1624 00000KT P6SM SCT030 BKN200
     FM160800 29005KT 4SM BR SCT004 BKN050
      TEMPO 1610/1612 1SM BR
     FM161400 29003KT P6SM OVC025
     FM162100 31006KT P6SM BKN035=

USA.gov is the U.S. government's official web portal to all federal, state and local government web resources and services.